createdAt,value
2019-01-12T00:02:06.594Z,88.59
2019-01-12T00:04:38.610Z,88.80
2019-01-12T00:07:10.611Z,88.68
2019-01-12T00:09:42.737Z,88.86
2019-01-12T00:12:14.727Z,88.91
2019-01-12T00:14:46.771Z,89.00
2019-01-12T00:17:18.883Z,89.26
2019-01-12T00:19:50.871Z,89.21
2019-01-12T00:22:22.887Z,89.18
2019-01-12T00:24:54.921Z,89.00
2019-01-12T00:27:26.878Z,89.23
2019-01-12T00:29:58.922Z,89.17
2019-01-12T00:32:30.898Z,88.98
2019-01-12T00:35:04.627Z,88.92
2019-01-12T00:37:36.588Z,88.94
2019-01-12T00:40:08.622Z,89.11
2019-01-12T00:42:40.594Z,88.99
2019-01-12T00:45:12.696Z,88.73
2019-01-12T00:47:44.697Z,88.85
2019-01-12T00:50:17.086Z,88.99
2019-01-12T00:52:49.100Z,88.99
2019-01-12T00:55:21.108Z,89.15
2019-01-12T00:57:53.100Z,88.95
2019-01-12T01:00:25.147Z,89.02
2019-01-12T01:02:57.107Z,89.07
2019-01-12T01:05:29.105Z,88.94
2019-01-12T01:08:01.121Z,88.89
2019-01-12T01:10:33.128Z,88.89
2019-01-12T01:13:05.129Z,88.83
2019-01-12T01:15:37.158Z,88.60
2019-01-12T01:18:09.143Z,88.08
2019-01-12T01:20:41.187Z,88.12
2019-01-12T01:23:13.161Z,88.47
2019-01-12T01:25:45.234Z,88.89
2019-01-12T01:28:17.263Z,88.93
2019-01-12T01:30:49.226Z,88.62
2019-01-12T01:33:27.650Z,88.57
2019-01-12T01:35:55.107Z,88.66
2019-01-12T01:38:27.134Z,88.87
2019-01-12T01:40:59.123Z,89.26
2019-01-12T01:43:31.124Z,89.27
2019-01-12T01:46:03.121Z,89.29
2019-01-12T01:48:35.126Z,89.53
2019-01-12T01:51:07.103Z,89.72
2019-01-12T01:53:39.110Z,89.76
2019-01-12T01:56:11.080Z,89.42
2019-01-12T01:58:43.091Z,89.23
2019-01-12T02:01:15.074Z,89.45
2019-01-12T02:03:47.086Z,89.57
2019-01-12T02:06:19.043Z,89.75
2019-01-12T02:08:51.030Z,89.69
2019-01-12T02:11:23.004Z,89.44
2019-01-12T02:13:54.984Z,89.42
2019-01-12T02:16:26.957Z,89.50
2019-01-12T02:18:58.949Z,89.32
2019-01-12T02:21:30.918Z,89.41
2019-01-12T02:24:03.161Z,89.40
2019-01-12T02:26:35.127Z,89.47
2019-01-12T02:29:07.112Z,89.33
2019-01-12T02:31:39.147Z,88.91
2019-01-12T02:34:11.162Z,89.04
2019-01-12T02:36:43.155Z,88.96
2019-01-12T02:39:15.166Z,88.94
2019-01-12T02:41:47.121Z,89.20
2019-01-12T02:44:19.123Z,89.49
2019-01-12T02:46:51.112Z,89.38
2019-01-12T02:49:23.080Z,89.45
2019-01-12T02:51:55.058Z,89.52
2019-01-12T02:54:27.058Z,89.49
2019-01-12T02:56:59.005Z,89.19
2019-01-12T02:59:30.990Z,89.01
2019-01-12T03:02:03.590Z,88.99
2019-01-12T03:04:35.579Z,89.23
2019-01-12T03:07:07.575Z,89.64
2019-01-12T03:09:39.608Z,89.61
2019-01-12T03:12:11.647Z,89.83
2019-01-12T03:14:43.601Z,89.66
2019-01-12T03:17:15.586Z,89.72
2019-01-12T03:19:47.553Z,90.05
2019-01-12T03:22:19.594Z,90.37
2019-01-12T03:24:52.039Z,90.22
2019-01-12T03:27:24.021Z,90.39
2019-01-12T03:29:56.029Z,90.49
2019-01-12T03:32:28.003Z,90.41
2019-01-12T03:35:00.012Z,90.56
2019-01-12T03:37:32.035Z,90.63
2019-01-12T03:40:05.700Z,90.52
2019-01-12T03:42:37.689Z,90.52
2019-01-12T03:45:10.855Z,90.50
2019-01-12T03:47:42.965Z,90.41
2019-01-12T03:50:15.148Z,90.40
2019-01-12T03:52:47.193Z,89.99
2019-01-12T03:55:25.555Z,90.01
2019-01-12T03:57:53.068Z,90.21
2019-01-12T04:00:25.131Z,90.33
2019-01-12T04:02:57.124Z,90.29
2019-01-12T04:05:29.108Z,90.37
2019-01-12T04:08:01.076Z,90.41
2019-01-12T04:10:33.057Z,90.32
2019-01-12T04:13:05.059Z,90.37
2019-01-12T04:15:37.122Z,90.49
2019-01-12T04:18:09.145Z,90.57
2019-01-12T04:20:41.117Z,90.54
2019-01-12T04:23:13.075Z,90.56
2019-01-12T04:26:04.476Z,90.59
2019-01-12T04:28:36.455Z,90.73
2019-01-12T04:31:08.425Z,90.71
2019-01-12T04:33:40.424Z,90.59
2019-01-12T04:36:12.389Z,90.62
2019-01-12T04:38:44.406Z,90.54
2019-01-12T04:41:16.409Z,90.35
2019-01-12T04:43:48.398Z,90.43
2019-01-12T04:46:20.387Z,90.41
2019-01-12T04:48:52.346Z,90.40
2019-01-12T04:51:24.324Z,90.40
2019-01-12T04:53:56.311Z,90.41
2019-01-12T04:56:28.318Z,90.25
2019-01-12T04:59:00.266Z,90.21
2019-01-12T05:01:32.256Z,90.20
2019-01-12T05:04:04.238Z,90.39
2019-01-12T05:06:36.239Z,90.54
2019-01-12T05:09:08.189Z,90.72
2019-01-12T05:11:40.166Z,90.88
2019-01-12T05:14:12.117Z,90.96
2019-01-12T05:16:44.098Z,90.92
2019-01-12T05:19:16.064Z,90.80
2019-01-12T05:21:48.079Z,90.78
2019-01-12T05:24:20.041Z,90.97
2019-01-12T05:26:52.053Z,91.09
2019-01-12T05:29:24.013Z,91.27
2019-01-12T05:31:55.989Z,91.32
2019-01-12T05:34:27.957Z,91.34
2019-01-12T05:36:59.973Z,91.42
2019-01-12T05:39:31.938Z,91.44
2019-01-12T05:42:03.940Z,91.20
2019-01-12T05:44:35.905Z,90.96
2019-01-12T05:47:07.889Z,90.80
2019-01-12T05:49:39.896Z,90.88
2019-01-12T05:52:11.879Z,90.91
2019-01-12T05:54:43.843Z,91.05
2019-01-12T05:57:15.867Z,91.32
2019-01-12T05:59:47.812Z,91.31
2019-01-12T06:02:19.811Z,91.37
2019-01-12T06:04:51.811Z,91.39
2019-01-12T06:07:23.791Z,91.36
2019-01-12T06:09:55.781Z,91.34
2019-01-12T06:12:27.798Z,91.42
2019-01-12T06:14:59.790Z,91.64
2019-01-12T06:17:31.785Z,91.84
2019-01-12T06:20:04.757Z,91.89
2019-01-12T06:22:36.739Z,91.86
2019-01-12T06:25:08.734Z,91.88
2019-01-12T06:27:40.758Z,91.94
2019-01-12T06:30:17.736Z,92.00
2019-01-12T06:32:49.759Z,92.03
2019-01-12T06:35:24.198Z,91.99
2019-01-12T06:37:56.209Z,92.09
2019-01-12T06:40:28.234Z,92.17
2019-01-12T06:43:00.201Z,92.12
2019-01-12T06:45:32.179Z,92.13
2019-01-12T06:48:04.170Z,92.16
2019-01-12T06:50:36.204Z,92.12
2019-01-12T06:53:08.195Z,92.18
2019-01-12T06:55:40.173Z,92.10
2019-01-12T06:58:12.128Z,92.04
2019-01-12T07:00:44.115Z,92.08
2019-01-12T07:03:16.088Z,92.08
2019-01-12T07:05:48.099Z,92.14
2019-01-12T07:08:20.052Z,92.32
2019-01-12T07:10:52.029Z,92.18
2019-01-12T07:13:24.022Z,92.21
2019-01-12T07:15:56.024Z,92.21
2019-01-12T07:18:28.022Z,92.27
2019-01-12T07:21:00.033Z,92.29
2019-01-12T07:23:32.035Z,92.27
2019-01-12T07:26:04.020Z,92.34
2019-01-12T07:28:36.025Z,92.14
2019-01-12T07:31:08.001Z,92.31
2019-01-12T07:33:40.066Z,92.40
2019-01-12T07:36:12.062Z,92.41
2019-01-12T07:38:44.080Z,92.51
2019-01-12T07:41:16.088Z,92.60
2019-01-12T07:43:48.055Z,92.63
2019-01-12T07:46:20.068Z,92.71
2019-01-12T07:48:52.068Z,92.72
2019-01-12T07:51:24.125Z,92.69
2019-01-12T07:53:57.911Z,92.81
2019-01-12T07:56:29.951Z,92.81
2019-01-12T07:59:01.961Z,92.79
2019-01-12T08:01:33.990Z,92.62
2019-01-12T08:04:05.996Z,92.66
2019-01-12T08:06:38.034Z,92.58
2019-01-12T08:09:10.023Z,92.53
2019-01-12T08:11:42.044Z,92.50
2019-01-12T08:14:14.027Z,92.42
2019-01-12T08:17:05.491Z,92.60
2019-01-12T08:19:45.178Z,92.61
2019-01-12T08:22:17.185Z,92.80
2019-01-12T08:24:49.188Z,92.75
2019-01-12T08:27:21.170Z,92.60
2019-01-12T08:29:53.225Z,92.57
2019-01-12T08:32:25.252Z,92.74
2019-01-12T08:34:57.287Z,92.71
2019-01-12T08:37:29.301Z,93.09
2019-01-12T08:40:01.305Z,93.24
2019-01-12T08:42:33.314Z,93.18
2019-01-12T08:45:46.298Z,93.28
2019-01-12T08:48:18.312Z,93.33
2019-01-12T08:50:50.298Z,93.30
2019-01-12T08:53:22.281Z,93.42
2019-01-12T08:55:54.291Z,93.35
2019-01-12T08:58:26.292Z,93.13
2019-01-12T09:00:58.283Z,93.42
2019-01-12T09:03:30.297Z,93.45
2019-01-12T09:06:02.321Z,93.33
2019-01-12T09:08:34.317Z,93.37
2019-01-12T09:11:06.311Z,92.82
2019-01-12T09:13:38.332Z,93.19
2019-01-12T09:16:10.355Z,93.33
2019-01-12T09:18:42.434Z,92.93
2019-01-12T09:21:14.452Z,92.73
2019-01-12T09:23:46.435Z,93.17
2019-01-12T09:26:18.469Z,93.35
2019-01-12T09:28:50.446Z,93.36
2019-01-12T09:31:22.488Z,93.29
2019-01-12T09:33:54.480Z,93.41
2019-01-12T09:36:26.489Z,93.11
2019-01-12T09:38:58.502Z,93.18
2019-01-12T09:41:30.535Z,93.06
2019-01-12T09:44:02.572Z,93.09
2019-01-12T09:49:34.473Z,93.04
2019-01-12T09:52:06.489Z,92.58
2019-01-12T09:54:41.216Z,92.49
2019-01-12T09:57:13.359Z,92.52
2019-01-12T09:59:59.150Z,92.52
2019-01-12T10:02:49.987Z,92.28
2019-01-12T10:05:22.061Z,92.08
2019-01-12T10:07:54.283Z,91.93
2019-01-12T10:10:26.287Z,91.89
2019-01-12T10:12:58.386Z,92.02
2019-01-12T10:15:30.393Z,91.21
2019-01-12T10:18:02.473Z,91.52
2019-01-12T10:20:34.512Z,91.24
2019-01-12T10:23:06.512Z,91.26
2019-01-12T10:25:38.518Z,91.39
2019-01-12T10:28:10.568Z,90.87
2019-01-12T10:30:42.588Z,90.86
2019-01-12T10:33:14.703Z,90.84
2019-01-12T10:35:46.757Z,90.68
2019-01-12T10:38:18.778Z,90.17
2019-01-12T10:40:50.831Z,90.66
2019-01-12T10:43:22.859Z,90.42
2019-01-12T10:45:54.930Z,89.66
2019-01-12T10:48:26.915Z,89.72
2019-01-12T10:50:58.950Z,89.67
2019-01-12T10:53:30.994Z,89.48
2019-01-12T10:56:03.240Z,89.34
2019-01-12T10:58:35.230Z,88.26
2019-01-12T11:01:07.247Z,89.02
2019-01-12T11:03:39.231Z,89.77
2019-01-12T11:06:11.266Z,89.73
2019-01-12T11:08:43.287Z,88.94
2019-01-12T11:11:15.323Z,88.48
2019-01-12T11:13:47.341Z,88.54
2019-01-12T11:16:19.380Z,88.38
2019-01-12T11:18:51.364Z,88.17
2019-01-12T11:21:23.391Z,88.68
2019-01-12T11:23:55.403Z,88.67
2019-01-12T11:26:27.484Z,86.99
2019-01-12T11:29:01.212Z,88.18
2019-01-12T11:31:33.263Z,88.06
2019-01-12T11:34:05.306Z,87.62
2019-01-12T11:36:37.392Z,87.40
2019-01-12T11:39:09.422Z,87.34
2019-01-12T11:41:41.489Z,87.20
2019-01-12T11:44:13.485Z,87.54
2019-01-12T11:46:45.495Z,88.11
2019-01-12T11:49:17.603Z,87.53
2019-01-12T11:51:49.639Z,87.53
2019-01-12T11:54:21.623Z,88.30
2019-01-12T11:56:53.693Z,87.72
2019-01-12T11:59:26.493Z,87.94
2019-01-12T12:02:03.745Z,87.86
2019-01-12T12:05:03.051Z,87.18
2019-01-12T12:07:37.096Z,87.70
2019-01-12T12:10:11.151Z,87.29
2019-01-12T12:12:43.320Z,87.11
2019-01-12T12:15:15.454Z,87.52
2019-01-12T12:17:47.559Z,88.25
2019-01-12T12:20:21.836Z,88.44
2019-01-12T12:22:54.010Z,87.53
2019-01-12T12:25:26.129Z,87.55
2019-01-12T12:27:58.158Z,87.52
2019-01-12T12:30:30.736Z,87.80
2019-01-12T12:33:19.236Z,88.14
2019-01-12T12:35:52.562Z,86.98
2019-01-12T12:38:48.215Z,87.95
2019-01-12T12:41:22.951Z,87.99
2019-01-12T12:44:06.521Z,87.17
2019-01-12T12:46:41.408Z,87.90
2019-01-12T12:49:13.581Z,87.62
2019-01-12T12:51:45.685Z,88.27
2019-01-12T12:54:17.747Z,88.24
2019-01-12T12:56:55.861Z,87.69
2019-01-12T13:02:20.591Z,87.80
2019-01-12T13:04:52.636Z,87.40
2019-01-12T13:07:24.639Z,87.10
2019-01-12T13:09:56.724Z,88.10
2019-01-12T13:12:28.797Z,88.50
2019-01-12T13:15:01.218Z,86.96
2019-01-12T13:17:33.306Z,87.10
2019-01-12T13:20:07.271Z,87.60
2019-01-12T13:22:39.323Z,87.13
2019-01-12T13:25:12.807Z,87.77
2019-01-12T13:27:46.551Z,87.65
2019-01-12T13:30:21.038Z,87.01
2019-01-12T13:32:53.122Z,87.16
2019-01-12T13:35:25.248Z,87.34
2019-01-12T13:37:57.330Z,87.35
2019-01-12T13:40:29.358Z,87.13
2019-01-12T13:43:01.466Z,87.41
2019-01-12T13:45:33.520Z,86.73
2019-01-12T13:48:05.622Z,87.50
2019-01-12T13:50:37.621Z,85.44
2019-01-12T13:53:09.775Z,85.59
2019-01-12T13:55:41.828Z,86.62
2019-01-12T13:58:13.868Z,87.05
2019-01-12T14:00:45.924Z,87.15
2019-01-12T14:03:18.008Z,87.37
2019-01-12T14:05:50.027Z,86.87
2019-01-12T14:08:22.059Z,86.55
2019-01-12T14:10:54.117Z,86.98
2019-01-12T14:13:26.204Z,86.64
2019-01-12T14:15:58.258Z,86.14
2019-01-12T14:18:30.355Z,87.05
2019-01-12T14:21:02.403Z,86.75
2019-01-12T14:23:34.477Z,87.07
2019-01-12T14:26:06.518Z,87.44
2019-01-12T14:28:38.586Z,86.98
2019-01-12T14:31:10.592Z,86.77
2019-01-12T14:33:42.645Z,86.07
2019-01-12T14:36:14.648Z,85.88
2019-01-12T14:38:46.741Z,86.36
2019-01-12T14:41:18.792Z,87.02
2019-01-12T14:43:50.834Z,86.64
2019-01-12T14:46:22.904Z,87.02
2019-01-12T14:48:54.983Z,86.48
2019-01-12T14:51:27.030Z,86.49
2019-01-12T14:53:59.076Z,86.83
2019-01-12T14:56:31.122Z,86.85
2019-01-12T14:59:03.171Z,86.64
2019-01-12T15:01:35.266Z,86.31
2019-01-12T15:04:07.273Z,86.54
2019-01-12T15:06:39.299Z,87.27
2019-01-12T15:09:11.325Z,87.49
2019-01-12T15:11:43.391Z,87.17
2019-01-12T15:14:15.422Z,87.07
2019-01-12T15:16:47.505Z,86.57
2019-01-12T15:19:19.558Z,86.53
2019-01-12T15:21:51.614Z,86.75
2019-01-12T15:24:23.627Z,86.66
2019-01-12T15:26:55.697Z,86.61
2019-01-12T15:29:27.695Z,86.27
2019-01-12T15:31:59.753Z,87.03
2019-01-12T15:34:31.771Z,87.04
2019-01-12T15:37:03.994Z,87.02
2019-01-12T15:39:35.997Z,86.62
2019-01-12T15:42:08.090Z,86.59
2019-01-12T15:44:40.135Z,86.94
2019-01-12T15:47:12.214Z,86.54
2019-01-12T15:49:44.390Z,85.68
2019-01-12T15:52:16.477Z,85.99
2019-01-12T15:54:48.494Z,86.31
2019-01-12T15:57:20.498Z,86.27
2019-01-12T15:59:52.549Z,86.98
2019-01-12T16:02:43.828Z,86.66
2019-01-12T16:05:15.902Z,86.22
2019-01-12T16:07:48.086Z,85.25
2019-01-12T16:10:20.120Z,85.65
2019-01-12T16:12:52.164Z,85.32
2019-01-12T16:15:25.670Z,84.77
2019-01-12T16:17:57.825Z,84.29
2019-01-12T16:20:49.340Z,84.28
2019-01-12T16:23:21.371Z,84.29
2019-01-12T16:25:53.406Z,84.56
2019-01-12T16:28:25.443Z,85.00
2019-01-12T16:30:57.526Z,85.14
2019-01-12T16:33:29.604Z,85.12
2019-01-12T16:36:01.663Z,85.02
2019-01-12T16:38:33.758Z,85.02
2019-01-12T16:41:05.850Z,84.60
2019-01-12T16:43:37.880Z,85.23
2019-01-12T16:46:10.009Z,85.54
2019-01-12T16:48:43.128Z,85.83
2019-01-12T16:51:15.260Z,85.90
2019-01-12T16:53:47.265Z,86.01
2019-01-12T16:56:19.322Z,85.63
2019-01-12T16:58:51.334Z,85.98
2019-01-12T17:01:23.437Z,86.29
2019-01-12T17:03:55.484Z,86.42
2019-01-12T17:06:27.550Z,86.16
2019-01-12T17:08:59.545Z,86.49
2019-01-12T17:11:31.589Z,87.02
2019-01-12T17:14:03.614Z,86.54
2019-01-12T17:16:35.664Z,87.26
2019-01-12T17:19:07.686Z,87.46
2019-01-12T17:21:39.755Z,87.48
2019-01-12T17:24:11.763Z,87.13
2019-01-12T17:26:43.796Z,86.92
2019-01-12T17:29:17.932Z,86.80
2019-01-12T17:31:49.809Z,87.37
2019-01-12T17:34:21.869Z,87.27
2019-01-12T17:36:58.732Z,87.63
2019-01-12T17:39:27.930Z,87.52
2019-01-12T17:42:00.006Z,87.65
2019-01-12T17:44:32.016Z,87.97
2019-01-12T17:47:04.064Z,87.38
2019-01-12T17:49:36.105Z,87.83
2019-01-12T17:52:08.888Z,88.16
2019-01-12T17:54:40.845Z,88.68
2019-01-12T17:57:12.916Z,88.69
2019-01-12T17:59:44.906Z,88.92
2019-01-12T18:02:16.971Z,88.97
2019-01-12T18:04:49.033Z,89.22
2019-01-12T18:07:21.115Z,89.55
2019-01-12T18:09:56.154Z,89.89
2019-01-12T18:12:28.234Z,89.91
2019-01-12T18:15:00.259Z,89.79
2019-01-12T18:17:32.275Z,90.01
2019-01-12T18:20:05.842Z,90.31
2019-01-12T18:22:37.873Z,90.18
2019-01-12T18:25:10.569Z,90.23
2019-01-12T18:27:42.658Z,90.43
2019-01-12T18:30:17.328Z,90.21
2019-01-12T18:32:49.352Z,90.22
2019-01-12T18:35:21.465Z,88.99
2019-01-12T18:37:53.664Z,89.14
2019-01-12T18:40:25.713Z,89.40
2019-01-12T18:42:57.814Z,89.86
2019-01-12T18:45:29.958Z,89.84
2019-01-12T18:48:02.044Z,90.08
2019-01-12T18:50:34.097Z,90.43
2019-01-12T18:53:06.249Z,89.78
2019-01-12T18:55:38.391Z,90.28
2019-01-12T18:58:10.476Z,90.72
2019-01-12T19:00:42.494Z,90.67
2019-01-12T19:03:14.585Z,90.70
2019-01-12T19:05:46.653Z,90.56
2019-01-12T19:08:18.715Z,90.92
2019-01-12T19:10:50.756Z,91.00
2019-01-12T19:13:22.885Z,91.27
2019-01-12T19:15:54.922Z,91.28
2019-01-12T19:18:27.034Z,91.32
2019-01-12T19:20:59.133Z,91.28
2019-01-12T19:23:31.184Z,90.99
2019-01-12T19:26:03.220Z,91.03
2019-01-12T19:28:35.281Z,91.22
2019-01-12T19:31:07.355Z,91.00
2019-01-12T19:33:39.362Z,91.02
2019-01-12T19:36:11.410Z,91.32
2019-01-12T19:38:43.493Z,91.68
2019-01-12T19:41:15.513Z,91.30
2019-01-12T19:43:47.604Z,91.42
2019-01-12T19:46:19.671Z,91.69
2019-01-12T19:48:51.762Z,91.65
2019-01-12T19:51:23.941Z,91.69
2019-01-12T19:53:56.078Z,91.95
2019-01-12T19:56:28.144Z,91.91
2019-01-12T19:59:00.289Z,91.72
2019-01-12T20:01:32.405Z,91.23
2019-01-12T20:04:04.469Z,91.44
2019-01-12T20:06:36.526Z,91.62
2019-01-12T20:09:08.834Z,91.73
2019-01-12T20:11:40.883Z,92.01
2019-01-12T20:14:13.035Z,92.00
2019-01-12T20:16:45.112Z,92.29
2019-01-12T20:19:17.187Z,92.36
2019-01-12T20:21:49.244Z,92.25
2019-01-12T20:24:21.385Z,92.18
2019-01-12T20:26:53.563Z,92.23
2019-01-12T20:29:25.640Z,92.39
2019-01-12T20:32:14.505Z,92.56
2019-01-12T20:35:08.586Z,92.35
2019-01-12T20:38:24.001Z,92.40
2019-01-12T20:41:32.605Z,92.23
2019-01-12T20:45:04.347Z,92.20
2019-01-12T20:48:09.076Z,92.42
2019-01-12T20:51:17.692Z,92.50
2019-01-12T20:54:36.363Z,92.39
2019-01-12T20:57:33.383Z,92.72
2019-01-12T21:00:48.918Z,92.98
2019-01-12T21:04:11.859Z,92.97
2019-01-12T21:07:25.932Z,93.13
2019-01-12T21:10:30.567Z,92.59
2019-01-12T21:14:14.763Z,92.68
2019-01-12T21:16:55.855Z,92.69
2019-01-12T21:19:27.939Z,93.08
2019-01-12T21:22:00.003Z,93.12
2019-01-12T21:24:32.079Z,92.86
2019-01-12T21:27:04.424Z,92.66
2019-01-12T21:29:36.455Z,92.67
2019-01-12T21:32:08.518Z,92.76
2019-01-12T21:34:40.594Z,92.82
2019-01-12T21:37:12.666Z,92.82
2019-01-12T21:39:44.727Z,92.74
2019-01-12T21:42:16.786Z,92.62
2019-01-12T21:44:48.815Z,92.33
2019-01-12T21:47:20.878Z,92.35
2019-01-12T21:49:52.973Z,92.46
2019-01-12T21:52:25.030Z,92.70
2019-01-12T21:54:57.045Z,92.94
2019-01-12T21:57:29.132Z,93.18
2019-01-12T22:00:01.173Z,93.27
2019-01-12T22:02:33.239Z,93.48
2019-01-12T22:05:05.537Z,93.58
2019-01-12T22:07:37.623Z,93.65
2019-01-12T22:10:18.830Z,93.62
2019-01-12T22:12:45.485Z,93.41
2019-01-12T22:15:17.663Z,93.64
2019-01-12T22:17:49.709Z,93.75
2019-01-12T22:20:21.803Z,93.75
2019-01-12T22:22:53.815Z,93.77
2019-01-12T22:25:25.925Z,93.67
2019-01-12T22:27:57.907Z,93.74
2019-01-12T22:30:30.356Z,93.84
2019-01-12T22:33:02.702Z,93.83
2019-01-12T22:35:34.733Z,93.95
2019-01-12T22:38:06.751Z,94.05
2019-01-12T22:40:38.825Z,94.12
2019-01-12T22:43:10.831Z,94.06
2019-01-12T22:45:42.844Z,94.11
2019-01-12T22:48:14.884Z,94.11
2019-01-12T22:50:46.938Z,94.05
2019-01-12T22:53:18.968Z,94.22
2019-01-12T22:55:50.978Z,94.15
2019-01-12T22:58:22.951Z,94.13
2019-01-12T23:01:07.141Z,94.17
2019-01-12T23:03:44.203Z,93.87
2019-01-12T23:06:16.396Z,94.07
2019-01-12T23:08:48.392Z,94.37
2019-01-12T23:11:20.479Z,94.31
2019-01-12T23:13:52.482Z,94.11
2019-01-12T23:16:24.525Z,93.80
2019-01-12T23:18:56.573Z,94.02
2019-01-12T23:21:28.612Z,94.08
2019-01-12T23:24:00.629Z,94.15
2019-01-12T23:26:32.649Z,94.18
2019-01-12T23:29:05.042Z,94.19
2019-01-12T23:31:37.035Z,94.13
2019-01-12T23:34:09.054Z,94.15
2019-01-12T23:36:41.080Z,94.07
2019-01-12T23:39:13.156Z,94.12
2019-01-12T23:41:45.221Z,93.92
2019-01-12T23:44:17.251Z,94.01
2019-01-12T23:46:49.291Z,94.07
2019-01-12T23:49:21.293Z,94.14
2019-01-12T23:51:53.300Z,94.20
2019-01-12T23:54:25.348Z,94.34
2019-01-12T23:56:57.352Z,94.24
2019-01-12T23:59:29.370Z,94.22
